Julian Carroll Airport
KJKL : now visible

Airfield :











YOU CAN JOIN US ON...

 
LOGIN :

Register | Disclaimer

   EN    FR    IT 

 









Legend :    VFR   Marginal VFR   IFR   Intensive IFR   Very Intensive IFR
Visi :
Ceiling :
>= 8 km
>= 3000ft
5 to 8 km
1000 to 3000 ft
1500m to 5 km
500 to 1000 ft
800 to 1500m
200 to 500 ft
< 800m
< 200 ft
Symbols :   Thunderstorms  Fog  Heavy snow  Heavy precipitations  Wind > 20 kt







- Airport Elevation : 1381 ft


KJKL - Julian Carroll

CURRENT METAR :
  • 171312Z AUTO 10SM BKN018 BKN028 OVC090 23/22 A3006 RMK AO2 RAB02E12 P0000 T02330217

EXPIRED METARs :
  • 171253Z AUTO 00000KT 10SM FEW028 BKN035 OVC085 24/22 A3006 RMK AO2 RAE45 SLP162 P0000 T02390222
  • 171238Z AUTO 00000KT 10SM -RA SCT028 BKN033 OVC085 23/22 A3006 RMK AO2 P0000 T02280217
  • 171222Z AUTO 00000KT 10SM -RA BKN028 BKN033 OVC080 23/22 A3006 RMK AO2 P0000 T02280217
  • 171153Z AUTO 10SM -RA FEW026 BKN080 22/22 A3004 RMK AO2 RAB01E28B47 SLP158 P0000 60005 70005 T02220217 10244 20217 51004
  • 171053Z AUTO VRB03KT 10SM OVC043 22/21 A3004 RMK AO2 RAB0955E51 SLP156 P0005 T02170211

TAF KJKL
Valid from the 17 at 12:00 until the 18 at 12:00 UTC


171120Z 1712/1812 VRB03KT P6SM VCSH BKN050 BKN100
FM171400 20006KT 6SM -SHRA VCTS BKN025CB OVC050
FM171700 23009KT 6SM -TSRA SCT025CB OVC040
FM172300 VRB05KT P6SM VCSH BKN025
FM180400 VRB03KT P6SM BKN025
KZID FIR / North America



MET'MAP, your aeronautical weather chart ! - Copyright ORBIFLY December 2007 - Disclaimer

ORBIFLY MET'MAP TEAM :

Programming & Development : Alexandra Zaïnal
Concept & Development : Baudouin d'Aumeries
Co-Development & Prog : Marc-Olivier Méhu
Technical & hardware support : Manuel Goepfert

Contact : metmap@orbifly.com




SOURCES & CREDITS :

   NOAA       Earth
Advisory